Alfred Station, New York
Current Conditions -  °F | °C
As of 6:56 PM on Friday 21 Nov 2014 (Local Time) from KELZ Reporting Station
Broken Clouds Broken Clouds  
Wind Chill:   Ceiling: 3000
Heat Index: 20°   Visibility: 10mi
Dew Point:   Wind: 9mph
Humidity: 60%   Direction: 270°W
Pressure: 30.37"   Gusts: NA
Location:  42.27°N, 77.76°W
Report Text: KELZ 212356Z AUTO 27008KT 10SM BKN030 M07/M13 A3037 RMK AO2 SLP324 60000 T10671133 11044 21078 51010
Loading
Personal Weather Stations






























Interactive Weather Map New forecast layout! Learn more

10-Day Weather Forecast

Advertisements
Track Severe Weather on mobile